createdAt,value
2023-02-25T00:00:22.656Z,632.00
2023-02-25T00:01:12.761Z,629.00
2023-02-25T00:02:04.427Z,631.00
2023-02-25T00:02:53.144Z,636.00
2023-02-25T00:03:43.009Z,636.00
2023-02-25T00:04:32.945Z,630.00
2023-02-25T00:05:22.973Z,631.00
2023-02-25T00:06:13.068Z,628.00
2023-02-25T00:07:03.347Z,638.00
2023-02-25T00:07:53.418Z,629.00
2023-02-25T00:08:43.484Z,631.00
2023-02-25T00:09:33.774Z,639.00
2023-02-25T00:10:23.842Z,633.00
2023-02-25T00:11:13.933Z,631.00
2023-02-25T00:12:03.955Z,635.00
2023-02-25T00:12:54.039Z,634.00
2023-02-25T00:13:44.097Z,633.00
2023-02-25T00:14:34.143Z,643.00
2023-02-25T00:15:24.184Z,634.00
2023-02-25T00:16:14.239Z,635.00
2023-02-25T00:17:04.387Z,632.00
2023-02-25T00:17:54.330Z,638.00
2023-02-25T00:18:44.608Z,637.00
2023-02-25T00:19:34.660Z,637.00
2023-02-25T00:20:24.695Z,630.00
2023-02-25T00:21:14.785Z,628.00
2023-02-25T00:22:04.823Z,641.00
2023-02-25T00:22:54.883Z,642.00
2023-02-25T00:23:44.957Z,630.00
2023-02-25T00:24:35.030Z,636.00
2023-02-25T00:25:25.081Z,630.00
2023-02-25T00:26:15.129Z,630.00
2023-02-25T00:27:05.162Z,638.00
2023-02-25T00:27:55.468Z,634.00
2023-02-25T00:28:45.486Z,633.00
2023-02-25T00:29:35.565Z,628.00
2023-02-25T00:30:25.645Z,632.00
2023-02-25T00:31:15.795Z,639.00
2023-02-25T00:32:05.883Z,635.00
2023-02-25T00:32:55.901Z,630.00
2023-02-25T00:33:45.819Z,633.00
2023-02-25T00:34:35.907Z,633.00
2023-02-25T00:35:25.959Z,638.00
2023-02-25T00:36:16.061Z,637.00
2023-02-25T00:37:06.334Z,631.00
2023-02-25T00:38:03.972Z,629.00
2023-02-25T00:38:47.385Z,629.00
2023-02-25T00:39:36.503Z,630.00
2023-02-25T00:40:26.541Z,630.00
2023-02-25T00:41:16.593Z,630.00
2023-02-25T00:42:06.626Z,632.00
2023-02-25T00:42:56.677Z,635.00
2023-02-25T00:43:46.740Z,635.00
2023-02-25T00:44:36.892Z,639.00
2023-02-25T00:45:26.960Z,630.00
2023-02-25T00:46:17.119Z,644.00
2023-02-25T00:47:07.332Z,637.00
2023-02-25T00:47:57.403Z,638.00
2023-02-25T00:48:47.502Z,632.00
2023-02-25T00:49:37.758Z,636.00
2023-02-25T00:50:27.791Z,632.00
2023-02-25T00:51:17.892Z,637.00
2023-02-25T00:52:07.955Z,636.00
2023-02-25T00:52:57.973Z,637.00
2023-02-25T00:53:48.009Z,630.00
2023-02-25T00:54:38.081Z,638.00
2023-02-25T00:55:28.117Z,630.00
2023-02-25T00:56:18.206Z,637.00
2023-02-25T00:57:08.231Z,620.00
2023-02-25T00:57:58.274Z,639.00
2023-02-25T00:58:48.317Z,634.00
2023-02-25T00:59:38.385Z,635.00
2023-02-25T01:00:28.500Z,640.00
2023-02-25T01:01:18.535Z,639.00
2023-02-25T01:02:08.536Z,634.00
2023-02-25T01:02:58.645Z,636.00
2023-02-25T01:03:48.654Z,628.00
2023-02-25T01:04:38.733Z,637.00
2023-02-25T01:05:28.965Z,631.00
2023-02-25T01:06:19.331Z,635.00
2023-02-25T01:07:09.092Z,632.00
2023-02-25T01:07:59.433Z,635.00
2023-02-25T01:08:49.494Z,633.00
2023-02-25T01:09:39.560Z,637.00
2023-02-25T01:10:29.844Z,626.00
2023-02-25T01:11:19.938Z,641.00
2023-02-25T01:12:09.968Z,632.00
2023-02-25T01:13:00.301Z,639.00
2023-02-25T01:13:50.405Z,630.00
2023-02-25T01:14:40.446Z,635.00
2023-02-25T01:15:30.736Z,635.00
2023-02-25T01:16:21.463Z,635.00
2023-02-25T01:17:10.869Z,635.00
2023-02-25T01:18:00.940Z,637.00
2023-02-25T01:18:50.968Z,631.00
2023-02-25T01:19:41.066Z,636.00
2023-02-25T01:20:31.076Z,631.00
2023-02-25T01:21:21.172Z,631.00
2023-02-25T01:22:11.204Z,628.00
2023-02-25T01:23:01.276Z,634.00
2023-02-25T01:23:51.338Z,639.00
2023-02-25T01:24:41.630Z,631.00
2023-02-25T01:25:31.619Z,628.00
2023-02-25T01:26:22.086Z,630.00
2023-02-25T01:27:11.822Z,629.00
2023-02-25T01:28:01.792Z,630.00
2023-02-25T01:28:51.872Z,633.00
2023-02-25T01:29:41.943Z,632.00
2023-02-25T01:30:31.979Z,636.00
2023-02-25T01:31:22.222Z,630.00
2023-02-25T01:32:12.369Z,627.00
2023-02-25T01:33:02.220Z,624.00
2023-02-25T01:33:52.463Z,627.00
2023-02-25T01:34:42.542Z,623.00
2023-02-25T01:35:32.598Z,639.00
2023-02-25T01:36:23.101Z,633.00
2023-02-25T01:37:12.686Z,634.00
2023-02-25T01:38:02.946Z,633.00
2023-02-25T01:38:52.988Z,627.00
2023-02-25T01:39:43.062Z,632.00
2023-02-25T01:40:33.081Z,628.00
2023-02-25T01:41:23.178Z,630.00
2023-02-25T01:42:13.207Z,635.00
2023-02-25T01:43:03.310Z,635.00
2023-02-25T01:43:53.360Z,625.00
2023-02-25T01:44:43.373Z,629.00
2023-02-25T01:45:33.451Z,629.00
2023-02-25T01:46:23.996Z,620.00
2023-02-25T01:47:13.770Z,631.00
2023-02-25T01:48:03.851Z,626.00
2023-02-25T01:48:53.886Z,621.00
2023-02-25T01:49:43.973Z,632.00
2023-02-25T01:50:34.011Z,626.00
2023-02-25T01:51:24.113Z,624.00
2023-02-25T01:52:14.112Z,630.00
2023-02-25T01:53:04.194Z,623.00
2023-02-25T01:53:54.238Z,627.00
2023-02-25T01:54:44.272Z,625.00
2023-02-25T01:55:34.315Z,623.00
2023-02-25T01:56:24.685Z,625.00
2023-02-25T01:57:14.423Z,628.00
2023-02-25T01:58:04.545Z,626.00
2023-02-25T01:58:54.591Z,630.00
2023-02-25T01:59:44.652Z,626.00
2023-02-25T02:00:34.717Z,631.00
2023-02-25T02:01:24.755Z,628.00
2023-02-25T02:02:14.837Z,630.00
2023-02-25T02:03:04.858Z,626.00
2023-02-25T02:03:54.889Z,624.00
2023-02-25T02:04:44.966Z,625.00
2023-02-25T02:05:34.995Z,626.00
2023-02-25T02:06:25.329Z,637.00
2023-02-25T02:07:15.150Z,626.00
2023-02-25T02:08:05.224Z,626.00
2023-02-25T02:08:55.267Z,623.00
2023-02-25T02:09:45.299Z,632.00
2023-02-25T02:10:35.333Z,626.00
2023-02-25T02:11:25.392Z,631.00
2023-02-25T02:12:15.421Z,625.00
2023-02-25T02:13:05.465Z,631.00
2023-02-25T02:13:55.504Z,628.00
2023-02-25T02:14:45.573Z,625.00
2023-02-25T02:15:35.595Z,623.00
2023-02-25T02:16:25.964Z,630.00
2023-02-25T02:17:15.727Z,628.00
2023-02-25T02:18:05.889Z,629.00
2023-02-25T02:18:55.916Z,633.00
2023-02-25T02:19:45.987Z,634.00
2023-02-25T02:20:36.324Z,629.00
2023-02-25T02:21:26.407Z,629.00
2023-02-25T02:22:16.415Z,635.00
2023-02-25T02:23:06.862Z,627.00
2023-02-25T02:23:56.837Z,627.00
2023-02-25T02:24:46.878Z,627.00
2023-02-25T02:25:36.906Z,629.00
2023-02-25T02:26:27.006Z,621.00
2023-02-25T02:27:17.030Z,628.00
2023-02-25T02:28:07.114Z,626.00
2023-02-25T02:28:57.141Z,622.00
2023-02-25T02:29:47.218Z,623.00
2023-02-25T02:30:37.282Z,623.00
2023-02-25T02:31:27.381Z,622.00
2023-02-25T02:32:17.489Z,622.00
2023-02-25T02:33:07.419Z,621.00
2023-02-25T02:33:57.487Z,621.00
2023-02-25T02:34:47.560Z,623.00
2023-02-25T02:35:37.582Z,622.00
2023-02-25T02:36:27.673Z,622.00
2023-02-25T02:37:17.697Z,628.00
2023-02-25T02:38:07.772Z,625.00
2023-02-25T02:38:57.832Z,630.00
2023-02-25T02:39:47.894Z,626.00
2023-02-25T02:40:38.108Z,629.00
2023-02-25T02:41:28.208Z,627.00
2023-02-25T02:42:18.227Z,623.00
2023-02-25T02:43:08.309Z,625.00
2023-02-25T02:43:58.333Z,624.00
2023-02-25T02:44:48.414Z,626.00
2023-02-25T02:45:38.501Z,631.00
2023-02-25T02:46:28.505Z,623.00
2023-02-25T02:47:18.532Z,628.00
2023-02-25T02:48:08.608Z,632.00
2023-02-25T02:48:58.643Z,628.00
2023-02-25T02:49:48.976Z,624.00
2023-02-25T02:50:39.001Z,627.00
2023-02-25T02:51:29.096Z,621.00
2023-02-25T02:52:19.129Z,631.00
2023-02-25T02:53:09.195Z,632.00
2023-02-25T02:53:59.259Z,626.00
2023-02-25T02:54:49.366Z,629.00
2023-02-25T02:55:39.375Z,628.00
2023-02-25T02:56:29.464Z,631.00
2023-02-25T02:57:19.487Z,627.00
2023-02-25T02:58:09.567Z,629.00
2023-02-25T02:58:59.783Z,642.00
2023-02-25T02:59:49.816Z,633.00
2023-02-25T03:00:39.851Z,629.00
2023-02-25T03:01:30.050Z,632.00
2023-02-25T03:02:19.964Z,628.00
2023-02-25T03:03:10.044Z,625.00
2023-02-25T03:04:00.220Z,635.00
2023-02-25T03:04:50.144Z,637.00
2023-02-25T03:05:40.259Z,632.00
2023-02-25T03:06:30.326Z,629.00
2023-02-25T03:07:20.348Z,635.00
2023-02-25T03:08:10.430Z,626.00
2023-02-25T03:09:00.464Z,635.00
2023-02-25T03:09:50.495Z,633.00
2023-02-25T03:10:40.584Z,631.00
2023-02-25T03:11:30.662Z,634.00
2023-02-25T03:12:20.701Z,628.00
2023-02-25T03:13:10.770Z,639.00
2023-02-25T03:14:00.797Z,633.00
2023-02-25T03:14:51.130Z,631.00
2023-02-25T03:15:41.159Z,633.00
2023-02-25T03:16:31.285Z,636.00
2023-02-25T03:17:21.262Z,634.00
2023-02-25T03:18:11.361Z,633.00
2023-02-25T03:19:01.384Z,628.00
2023-02-25T03:19:51.463Z,634.00
2023-02-25T03:20:41.531Z,630.00
2023-02-25T03:21:31.582Z,638.00
2023-02-25T03:22:21.616Z,634.00
2023-02-25T03:23:11.697Z,636.00
2023-02-25T03:24:01.986Z,628.00
2023-02-25T03:24:52.062Z,629.00
2023-02-25T03:25:42.110Z,631.00
2023-02-25T03:26:32.435Z,637.00
2023-02-25T03:27:22.461Z,638.00
2023-02-25T03:28:12.544Z,632.00
2023-02-25T03:29:02.579Z,634.00
2023-02-25T03:29:52.655Z,634.00
2023-02-25T03:30:42.746Z,637.00
2023-02-25T03:31:32.857Z,633.00
2023-02-25T03:32:22.946Z,633.00
2023-02-25T03:33:12.900Z,631.00
2023-02-25T03:34:02.933Z,634.00
2023-02-25T03:34:53.013Z,630.00
2023-02-25T03:35:43.313Z,633.00
2023-02-25T03:36:33.364Z,632.00
2023-02-25T03:37:23.409Z,634.00
2023-02-25T03:38:13.502Z,639.00
2023-02-25T03:39:03.519Z,626.00
2023-02-25T03:39:53.598Z,640.00
2023-02-25T03:40:43.628Z,632.00
2023-02-25T03:41:33.754Z,634.00
2023-02-25T03:42:23.751Z,632.00
2023-02-25T03:43:13.846Z,637.00
2023-02-25T03:44:03.884Z,632.00
2023-02-25T03:44:54.216Z,640.00
2023-02-25T03:45:44.281Z,635.00
2023-02-25T03:46:34.477Z,633.00
2023-02-25T03:47:24.681Z,632.00
2023-02-25T03:48:14.738Z,635.00
2023-02-25T03:49:04.770Z,633.00
2023-02-25T03:49:54.854Z,631.00
2023-02-25T03:50:44.893Z,628.00
2023-02-25T03:51:34.943Z,633.00
2023-02-25T03:52:24.980Z,630.00
2023-02-25T03:53:15.056Z,635.00
2023-02-25T03:54:05.079Z,634.00
2023-02-25T03:54:55.169Z,632.00
2023-02-25T03:55:45.197Z,635.00
2023-02-25T03:56:35.555Z,636.00
2023-02-25T03:57:25.607Z,634.00
2023-02-25T03:58:15.619Z,634.00
2023-02-25T03:59:05.690Z,626.00
2023-02-25T03:59:55.767Z,630.00
2023-02-25T04:00:45.814Z,630.00
2023-02-25T04:01:35.870Z,632.00
2023-02-25T04:02:25.971Z,629.00
2023-02-25T04:03:15.966Z,636.00
2023-02-25T04:04:06.015Z,632.00
2023-02-25T04:04:56.145Z,633.00
2023-02-25T04:05:46.081Z,635.00
2023-02-25T04:06:36.174Z,627.00
2023-02-25T04:07:26.207Z,630.00
2023-02-25T04:08:16.303Z,631.00
2023-02-25T04:09:06.357Z,626.00
2023-02-25T04:09:56.397Z,631.00
2023-02-25T04:10:46.453Z,626.00
2023-02-25T04:11:36.546Z,630.00
2023-02-25T04:12:26.792Z,637.00
2023-02-25T04:13:16.915Z,629.00
2023-02-25T04:14:06.896Z,623.00
2023-02-25T04:14:56.973Z,629.00
2023-02-25T04:15:47.067Z,631.00
2023-02-25T04:16:37.115Z,641.00
2023-02-25T04:17:27.114Z,633.00
2023-02-25T04:18:17.193Z,632.00
2023-02-25T04:19:07.231Z,631.00
2023-02-25T04:19:57.302Z,629.00
2023-02-25T04:20:47.334Z,628.00
2023-02-25T04:21:37.425Z,624.00
2023-02-25T04:22:27.460Z,625.00
2023-02-25T04:23:17.499Z,618.00
2023-02-25T04:24:07.558Z,618.00
2023-02-25T04:24:57.616Z,619.00
2023-02-25T04:25:47.673Z,615.00
2023-02-25T04:26:37.785Z,621.00
2023-02-25T04:27:27.783Z,618.00
2023-02-25T04:28:17.852Z,621.00
2023-02-25T04:29:07.908Z,613.00
2023-02-25T04:29:58.002Z,619.00
2023-02-25T04:30:48.324Z,621.00
2023-02-25T04:31:38.515Z,622.00
2023-02-25T04:32:28.509Z,619.00
2023-02-25T04:33:18.668Z,622.00
2023-02-25T04:34:08.745Z,619.00
2023-02-25T04:34:58.814Z,623.00
2023-02-25T04:35:49.100Z,617.00
2023-02-25T04:36:39.202Z,616.00
2023-02-25T04:37:29.230Z,621.00
2023-02-25T04:38:19.312Z,622.00
2023-02-25T04:39:09.335Z,615.00
2023-02-25T04:39:59.415Z,620.00
2023-02-25T04:40:49.435Z,616.00
2023-02-25T04:41:39.525Z,618.00
2023-02-25T04:42:29.555Z,616.00
2023-02-25T04:43:19.634Z,621.00
2023-02-25T04:44:09.660Z,616.00
2023-02-25T04:44:59.746Z,624.00
2023-02-25T04:45:49.779Z,615.00
2023-02-25T04:46:39.924Z,620.00
2023-02-25T04:47:29.920Z,622.00
2023-02-25T04:48:19.966Z,616.00
2023-02-25T04:49:10.012Z,617.00
2023-02-25T04:50:00.139Z,625.00
2023-02-25T04:50:50.128Z,621.00
2023-02-25T04:51:40.434Z,620.00
2023-02-25T04:52:30.461Z,623.00
2023-02-25T04:53:20.536Z,618.00
2023-02-25T04:54:10.863Z,624.00
2023-02-25T04:55:00.943Z,622.00
2023-02-25T04:55:50.979Z,627.00
2023-02-25T04:56:41.327Z,623.00
2023-02-25T04:57:31.356Z,622.00
2023-02-25T04:58:21.435Z,615.00
2023-02-25T04:59:11.454Z,617.00
2023-02-25T05:00:01.556Z,618.00
2023-02-25T05:00:51.556Z,615.00
2023-02-25T05:01:41.698Z,622.00
2023-02-25T05:02:31.682Z,618.00
2023-02-25T05:03:21.757Z,617.00
2023-02-25T05:04:11.797Z,623.00
2023-02-25T05:05:01.966Z,617.00
2023-02-25T05:05:52.108Z,622.00
2023-02-25T05:06:42.206Z,628.00
2023-02-25T05:07:32.219Z,631.00
2023-02-25T05:08:22.293Z,635.00
2023-02-25T05:09:12.328Z,617.00
2023-02-25T05:10:02.372Z,606.00
2023-02-25T05:10:52.389Z,609.00
2023-02-25T05:11:42.487Z,613.00
2023-02-25T05:12:32.513Z,616.00
2023-02-25T05:13:22.598Z,612.00
2023-02-25T05:14:12.617Z,604.00
2023-02-25T05:15:02.956Z,603.00
2023-02-25T05:15:53.105Z,605.00
2023-02-25T05:16:43.196Z,605.00
2023-02-25T05:17:33.079Z,614.00
2023-02-25T05:18:23.160Z,609.00
2023-02-25T05:19:13.187Z,607.00
2023-02-25T05:20:03.257Z,607.00
2023-02-25T05:20:53.257Z,602.00
2023-02-25T05:21:43.350Z,609.00
2023-02-25T05:22:33.380Z,605.00
2023-02-25T05:23:23.458Z,611.00
2023-02-25T05:24:13.494Z,611.00
2023-02-25T05:25:03.569Z,607.00
2023-02-25T05:25:53.594Z,615.00
2023-02-25T05:26:43.693Z,616.00
2023-02-25T05:27:33.727Z,614.00
2023-02-25T05:28:23.761Z,609.00
2023-02-25T05:29:13.801Z,604.00
2023-02-25T05:30:03.955Z,609.00
2023-02-25T05:30:54.021Z,611.00
2023-02-25T05:31:44.415Z,605.00
2023-02-25T05:32:34.232Z,618.00
2023-02-25T05:33:24.146Z,611.00
2023-02-25T05:34:14.171Z,611.00
2023-02-25T05:35:04.244Z,613.00
2023-02-25T05:35:54.311Z,613.00
2023-02-25T05:36:44.432Z,608.00
2023-02-25T05:37:34.655Z,618.00
2023-02-25T05:38:24.733Z,609.00
2023-02-25T05:39:14.796Z,610.00
2023-02-25T05:40:05.092Z,610.00
2023-02-25T05:40:55.154Z,614.00
2023-02-25T05:41:45.251Z,604.00
2023-02-25T05:42:35.272Z,607.00
2023-02-25T05:43:25.408Z,609.00
2023-02-25T05:44:15.386Z,606.00
2023-02-25T05:45:05.463Z,616.00
2023-02-25T05:45:55.489Z,618.00
2023-02-25T05:46:45.653Z,614.00
2023-02-25T05:47:35.662Z,614.00
2023-02-25T05:48:25.744Z,616.00
2023-02-25T05:49:15.927Z,612.00
2023-02-25T05:50:06.023Z,623.00
2023-02-25T05:50:56.048Z,615.00
2023-02-25T05:51:46.099Z,622.00
2023-02-25T05:52:36.129Z,616.00
2023-02-25T05:53:26.206Z,618.00
2023-02-25T05:54:16.230Z,617.00
2023-02-25T05:55:06.276Z,611.00
2023-02-25T05:55:56.312Z,619.00
2023-02-25T05:56:46.381Z,622.00
2023-02-25T05:57:36.420Z,617.00
2023-02-25T05:58:26.478Z,619.00
2023-02-25T05:59:16.505Z,613.00
2023-02-25T06:00:06.586Z,612.00
2023-02-25T06:00:56.651Z,618.00
2023-02-25T06:01:46.790Z,616.00
2023-02-25T06:02:36.776Z,607.00
2023-02-25T06:03:26.950Z,613.00
2023-02-25T06:04:16.894Z,616.00
2023-02-25T06:05:07.143Z,615.00
2023-02-25T06:05:57.171Z,612.00
2023-02-25T06:06:47.270Z,612.00
2023-02-25T06:07:37.295Z,615.00
2023-02-25T06:08:27.359Z,614.00
2023-02-25T06:09:17.369Z,615.00
2023-02-25T06:10:07.455Z,610.00
2023-02-25T06:10:57.478Z,611.00
2023-02-25T06:11:47.568Z,610.00
2023-02-25T06:12:37.557Z,607.00
2023-02-25T06:13:27.635Z,615.00
2023-02-25T06:14:17.666Z,613.00
2023-02-25T06:15:07.785Z,622.00
2023-02-25T06:15:57.790Z,618.00
2023-02-25T06:16:47.978Z,617.00
2023-02-25T06:17:37.915Z,622.00
2023-02-25T06:18:27.994Z,621.00
2023-02-25T06:19:18.070Z,619.00
2023-02-25T06:20:08.122Z,617.00
2023-02-25T06:20:58.368Z,622.00
2023-02-25T06:21:48.476Z,618.00
2023-02-25T06:22:38.528Z,613.00
2023-02-25T06:23:28.844Z,615.00
2023-02-25T06:24:18.871Z,617.00
2023-02-25T06:25:08.960Z,618.00
2023-02-25T06:25:58.981Z,625.00
2023-02-25T06:26:49.070Z,622.00
2023-02-25T06:27:39.100Z,616.00
2023-02-25T06:28:29.177Z,608.00
2023-02-25T06:29:19.219Z,610.00
2023-02-25T06:30:09.294Z,612.00
2023-02-25T06:30:59.395Z,610.00
2023-02-25T06:31:49.612Z,610.00
2023-02-25T06:32:39.684Z,616.00
2023-02-25T06:33:29.745Z,619.00
2023-02-25T06:34:19.787Z,619.00
2023-02-25T06:35:09.896Z,616.00
2023-02-25T06:35:59.917Z,616.00
2023-02-25T06:36:50.022Z,610.00
2023-02-25T06:37:40.049Z,615.00
2023-02-25T06:38:30.134Z,622.00
2023-02-25T06:39:20.171Z,614.00
2023-02-25T06:40:10.244Z,620.00
2023-02-25T06:41:00.289Z,616.00
2023-02-25T06:41:50.337Z,619.00
2023-02-25T06:42:40.371Z,616.00
2023-02-25T06:43:30.441Z,612.00
2023-02-25T06:44:20.517Z,622.00
2023-02-25T06:45:10.568Z,620.00
2023-02-25T06:46:00.877Z,615.00
2023-02-25T06:46:50.951Z,618.00
2023-02-25T06:47:40.986Z,617.00
2023-02-25T06:48:31.025Z,619.00
2023-02-25T06:49:21.041Z,614.00
2023-02-25T06:50:11.119Z,609.00
2023-02-25T06:51:01.165Z,614.00
2023-02-25T06:51:51.248Z,625.00
2023-02-25T06:52:41.269Z,621.00
2023-02-25T06:53:31.329Z,616.00
2023-02-25T06:54:21.389Z,613.00
2023-02-25T06:55:11.729Z,619.00
2023-02-25T06:56:01.753Z,618.00
2023-02-25T06:56:51.825Z,619.00
2023-02-25T06:57:41.858Z,621.00
2023-02-25T06:58:31.932Z,615.00
2023-02-25T06:59:21.961Z,624.00
2023-02-25T07:00:12.034Z,627.00
2023-02-25T07:01:02.104Z,623.00
2023-02-25T07:01:52.152Z,614.00
2023-02-25T07:02:42.180Z,617.00
2023-02-25T07:03:32.260Z,623.00
2023-02-25T07:04:22.561Z,619.00
2023-02-25T07:05:12.580Z,624.00
2023-02-25T07:06:02.617Z,619.00
2023-02-25T07:06:52.985Z,623.00
2023-02-25T07:07:42.985Z,621.00
2023-02-25T07:08:33.064Z,627.00
2023-02-25T07:09:23.097Z,623.00
2023-02-25T07:10:13.182Z,617.00
2023-02-25T07:11:03.205Z,620.00
2023-02-25T07:11:53.304Z,623.00
2023-02-25T07:12:43.339Z,622.00
2023-02-25T07:13:33.408Z,628.00
2023-02-25T07:14:23.436Z,621.00
2023-02-25T07:15:13.512Z,621.00
2023-02-25T07:16:03.849Z,623.00
2023-02-25T07:16:53.948Z,620.00
2023-02-25T07:17:43.888Z,627.00
2023-02-25T07:18:33.953Z,618.00
2023-02-25T07:19:24.028Z,623.00
2023-02-25T07:20:14.108Z,625.00
2023-02-25T07:21:04.162Z,620.00
2023-02-25T07:21:54.249Z,625.00
2023-02-25T07:22:44.300Z,624.00
2023-02-25T07:23:34.349Z,622.00
2023-02-25T07:24:24.419Z,621.00
2023-02-25T07:25:14.672Z,621.00
2023-02-25T07:26:04.634Z,618.00
2023-02-25T07:26:54.735Z,625.00
2023-02-25T07:27:45.080Z,619.00
2023-02-25T07:28:34.823Z,613.00
2023-02-25T07:29:24.849Z,622.00
2023-02-25T07:30:14.928Z,621.00
2023-02-25T07:31:05.174Z,618.00
2023-02-25T07:31:55.492Z,626.00
2023-02-25T07:32:45.565Z,624.00
2023-02-25T07:33:35.389Z,625.00
2023-02-25T07:34:25.427Z,618.00
2023-02-25T07:35:15.499Z,622.00
2023-02-25T07:36:05.578Z,619.00
2023-02-25T07:36:55.673Z,625.00
2023-02-25T07:37:45.698Z,618.00
2023-02-25T07:38:35.780Z,616.00
2023-02-25T07:39:25.914Z,615.00
2023-02-25T07:40:15.889Z,622.00
2023-02-25T07:41:06.166Z,619.00
2023-02-25T07:41:56.193Z,620.00
2023-02-25T07:42:46.213Z,624.00
2023-02-25T07:43:36.561Z,629.00
2023-02-25T07:44:26.610Z,621.00
2023-02-25T07:45:16.625Z,614.00
2023-02-25T07:46:06.771Z,619.00
2023-02-25T07:46:56.781Z,615.00
2023-02-25T07:47:46.807Z,618.00
2023-02-25T07:48:36.885Z,618.00
2023-02-25T07:49:26.947Z,622.00
2023-02-25T07:50:17.075Z,618.00
2023-02-25T07:51:07.051Z,623.00
2023-02-25T07:51:57.172Z,617.00
2023-02-25T07:52:47.413Z,618.00
2023-02-25T07:53:37.490Z,620.00
2023-02-25T07:54:27.583Z,627.00
2023-02-25T07:55:17.858Z,624.00
2023-02-25T07:56:07.880Z,625.00
2023-02-25T07:56:57.984Z,614.00
2023-02-25T07:57:48.008Z,623.00
2023-02-25T07:58:38.092Z,625.00
2023-02-25T07:59:28.108Z,623.00
2023-02-25T08:00:18.160Z,617.00
2023-02-25T08:01:08.219Z,622.00
2023-02-25T08:01:58.344Z,624.00
2023-02-25T08:02:48.446Z,623.00
2023-02-25T08:03:38.441Z,618.00
2023-02-25T08:04:28.760Z,626.00
2023-02-25T08:05:18.742Z,627.00
2023-02-25T08:06:08.859Z,626.00
2023-02-25T08:06:59.160Z,622.00
2023-02-25T08:07:49.193Z,624.00
2023-02-25T08:08:39.273Z,624.00
2023-02-25T08:09:29.289Z,622.00
2023-02-25T08:10:19.383Z,616.00
2023-02-25T08:11:09.426Z,621.00
2023-02-25T08:11:59.517Z,629.00
2023-02-25T08:12:49.542Z,625.00
2023-02-25T08:13:39.627Z,628.00
2023-02-25T08:14:29.647Z,621.00
2023-02-25T08:15:19.740Z,623.00
2023-02-25T08:16:09.986Z,627.00
2023-02-25T08:17:00.026Z,621.00
2023-02-25T08:17:50.037Z,628.00
2023-02-25T08:18:40.108Z,614.00
2023-02-25T08:19:30.143Z,617.00
2023-02-25T08:20:20.221Z,622.00
2023-02-25T08:21:10.240Z,624.00
2023-02-25T08:22:00.313Z,623.00
2023-02-25T08:22:50.334Z,621.00
2023-02-25T08:23:40.409Z,615.00
2023-02-25T08:24:30.429Z,620.00
2023-02-25T08:25:20.509Z,616.00
2023-02-25T08:26:10.566Z,604.00
2023-02-25T08:27:00.650Z,603.00
2023-02-25T08:27:50.673Z,599.00
2023-02-25T08:28:40.756Z,600.00
2023-02-25T08:29:30.816Z,608.00
2023-02-25T08:30:20.858Z,611.00
2023-02-25T08:31:11.105Z,619.00
2023-02-25T08:32:01.444Z,627.00
2023-02-25T08:32:51.370Z,629.00
2023-02-25T08:33:41.326Z,622.00
2023-02-25T08:34:31.666Z,621.00
2023-02-25T08:35:21.703Z,616.00
2023-02-25T08:36:11.759Z,628.00
2023-02-25T08:37:02.106Z,629.00
2023-02-25T08:37:52.128Z,624.00
2023-02-25T08:38:42.205Z,628.00
2023-02-25T08:39:32.526Z,620.00
2023-02-25T08:40:22.606Z,629.00
2023-02-25T08:41:12.655Z,625.00
2023-02-25T08:42:02.995Z,621.00
2023-02-25T08:42:53.036Z,626.00
2023-02-25T08:43:43.066Z,629.00
2023-02-25T08:44:33.098Z,619.00
2023-02-25T08:45:23.174Z,625.00
2023-02-25T08:46:13.215Z,623.00
2023-02-25T08:47:03.391Z,625.00
2023-02-25T08:47:53.324Z,634.00
2023-02-25T08:48:43.399Z,628.00
2023-02-25T08:49:33.445Z,627.00
2023-02-25T08:50:23.524Z,627.00
2023-02-25T08:51:13.764Z,627.00
2023-02-25T08:52:03.869Z,627.00
2023-02-25T08:52:53.897Z,617.00
2023-02-25T08:53:43.990Z,627.00
2023-02-25T08:54:33.997Z,625.00
2023-02-25T08:55:24.069Z,621.00
2023-02-25T08:56:14.134Z,622.00
2023-02-25T08:57:04.241Z,615.00
2023-02-25T08:57:54.253Z,619.00
2023-02-25T08:58:44.330Z,619.00
2023-02-25T08:59:34.353Z,623.00
2023-02-25T09:00:24.643Z,620.00
2023-02-25T09:01:14.812Z,622.00
2023-02-25T09:02:04.767Z,618.00
2023-02-25T09:02:54.799Z,614.00
2023-02-25T09:03:44.842Z,620.00
2023-02-25T09:04:34.965Z,617.00
2023-02-25T09:05:24.939Z,620.00
2023-02-25T09:06:14.962Z,619.00
2023-02-25T09:07:05.090Z,609.00
2023-02-25T09:07:55.084Z,616.00
2023-02-25T09:08:45.159Z,616.00
2023-02-25T09:09:35.435Z,618.00
2023-02-25T09:10:25.513Z,620.00
2023-02-25T09:11:15.582Z,612.00
2023-02-25T09:12:05.955Z,613.00
2023-02-25T09:12:55.954Z,613.00
2023-02-25T09:13:46.031Z,618.00
2023-02-25T09:14:36.353Z,617.00
2023-02-25T09:15:26.434Z,608.00
2023-02-25T09:16:16.483Z,614.00
2023-02-25T09:17:06.556Z,611.00
2023-02-25T09:17:56.549Z,607.00
2023-02-25T09:18:46.654Z,613.00
2023-02-25T09:19:36.660Z,608.00
2023-02-25T09:20:26.730Z,615.00
2023-02-25T09:21:16.798Z,612.00
2023-02-25T09:22:06.893Z,616.00
2023-02-25T09:22:57.453Z,611.00
2023-02-25T09:23:47.242Z,606.00
2023-02-25T09:24:37.299Z,613.00
2023-02-25T09:25:27.374Z,609.00
2023-02-25T09:26:17.655Z,611.00
2023-02-25T09:27:07.799Z,607.00
2023-02-25T09:27:57.828Z,608.00
2023-02-25T09:28:47.875Z,607.00
2023-02-25T09:29:37.896Z,615.00
2023-02-25T09:30:27.992Z,611.00
2023-02-25T09:31:18.170Z,609.00
2023-02-25T09:32:08.288Z,609.00
2023-02-25T09:32:58.281Z,605.00
2023-02-25T09:33:48.238Z,612.00
2023-02-25T09:34:38.264Z,603.00
2023-02-25T09:35:28.554Z,610.00
2023-02-25T09:36:18.592Z,598.00
2023-02-25T09:37:08.636Z,602.00
2023-02-25T09:37:58.661Z,607.00
2023-02-25T09:38:48.750Z,605.00
2023-02-25T09:39:38.777Z,604.00
2023-02-25T09:40:28.857Z,606.00
2023-02-25T09:41:18.902Z,607.00
2023-02-25T09:42:09.001Z,608.00
2023-02-25T09:42:59.016Z,600.00
2023-02-25T09:43:49.103Z,602.00
2023-02-25T09:44:39.367Z,601.00
2023-02-25T09:45:29.649Z,607.00
2023-02-25T09:46:19.542Z,607.00
2023-02-25T09:47:09.555Z,597.00
2023-02-25T09:47:59.622Z,612.00
2023-02-25T09:48:49.618Z,600.00
2023-02-25T09:49:39.709Z,608.00
2023-02-25T09:50:29.736Z,605.00
2023-02-25T09:51:19.802Z,604.00
2023-02-25T09:52:09.894Z,604.00
2023-02-25T09:52:59.920Z,608.00
2023-02-25T09:53:50.211Z,606.00
2023-02-25T09:54:40.246Z,603.00
2023-02-25T09:55:30.320Z,602.00
2023-02-25T09:56:20.654Z,612.00
2023-02-25T09:57:10.707Z,608.00
2023-02-25T09:58:00.727Z,606.00
2023-02-25T09:58:50.823Z,611.00
2023-02-25T09:59:40.900Z,609.00
2023-02-25T10:00:30.945Z,607.00
2023-02-25T10:01:21.101Z,603.00
2023-02-25T10:02:11.190Z,610.00
2023-02-25T10:03:01.311Z,610.00
2023-02-25T10:03:51.152Z,609.00
2023-02-25T10:04:41.177Z,605.00
2023-02-25T10:05:31.512Z,606.00
2023-02-25T10:06:21.577Z,604.00
2023-02-25T10:07:11.678Z,612.00
2023-02-25T10:08:01.959Z,610.00
2023-02-25T10:08:52.028Z,604.00
2023-02-25T10:09:42.103Z,608.00
2023-02-25T10:10:32.389Z,608.00
2023-02-25T10:11:22.690Z,607.00
2023-02-25T10:12:12.531Z,604.00
2023-02-25T10:13:02.554Z,605.00
2023-02-25T10:13:52.626Z,611.00
2023-02-25T10:14:42.691Z,607.00
2023-02-25T10:15:32.793Z,605.00
2023-02-25T10:16:22.847Z,598.00
2023-02-25T10:17:12.901Z,609.00
2023-02-25T10:18:02.921Z,609.00
2023-02-25T10:18:52.979Z,611.00
2023-02-25T10:19:43.281Z,601.00
2023-02-25T10:20:33.355Z,608.00
2023-02-25T10:21:23.925Z,610.00
2023-02-25T10:22:13.733Z,605.00
2023-02-25T10:23:03.771Z,606.00
2023-02-25T10:23:53.839Z,605.00
2023-02-25T10:24:43.859Z,610.00